Airfield :
LOGIN :

Register | Disclaimer

   EN    FR    IT 

 










Legend :    VFR   Marginal VFR   IFR   Intensive IFR   Very Intensive IFR
Visi :
Ceiling :
>= 8 km
>= 3000ft
5 to 8 km
1000 to 3000 ft
1500m to 5 km
500 to 1000 ft
800 to 1500m
200 to 500 ft
< 800m
< 200 ft
Symbols :   Thunderstorms  Fog  Heavy snow  Heavy precipitations  Wind > 20 kt
SIGMETs :     Misc.  Thunderstorms  Icing  Turbulence  Mountain Waves  Volcanic Ashes






- Airport Elevation : 1213 ft
- IATA code : SCQ


LEST - Santiago de Compostela

CURRENT METAR :
  • 050830Z VRB02KT 9999 FEW009 BKN022 08/07 Q1027 TEMPO 3000 -RA

EXPIRED METARs :
  • 050800Z 29003KT 250V330 9999 SCT015 BKN025 08/07 Q1027 TEMPO 3000 -RA
  • 050747Z 30005KT 270V340 8000 -RA SCT010 BKN014 08/07 Q1027 TEMPO 3000 -RA
  • 050730Z 28005KT 230V320 9999 FEW008 BKN033 08/06 Q1026 TEMPO 3000 -RA
  • 050700Z 24003KT 200V280 9999 FEW010 BKN046 07/07 Q1026 TEMPO 3000 -RA
  • 050630Z 27003KT 200V360 9999 FEW010 BKN044 08/07 Q1026 TEMPO 3000 -RA
  • 050600Z 30004KT 270V340 9999 FEW010 BKN015 07/07 Q1026 TEMPO 3000 -RA
  • 050530Z 28005KT 240V330 9999 FEW009 SCT028 BKN045 07/07 Q1026 TEMPO 3000 -RA

TAF TAF LEST
Valid from the 05 at 06:00 until the 06 at 06:00 UTC


050500Z 0506/0606 32007KT 9999 SCT010 SCT035 TX11/0514Z TN06/0507Z
TEMPO 0506/0510 3000 -RA BKN010
TEMPO 0602/0606 3000 BR BKN005



MET'MAP, your aeronautical weather chart ! - Copyright ORBIFLY December 2007 - Disclaimer

ORBIFLY MET'MAP TEAM :

Programming & Development : Alexandra Zaïnal
Concept & original design : Baudouin d'Aumeries
Assistance for programming : Marc-Olivier Méhu
Technical & hardware support : Manuel Goepfert

Contact : metmap@orbifly.com




SOURCES & CREDITS :

   NOAA